Orion — 5VAG7 — position and weather

sailwx.info

Track history (hours):
 
Tides and Currents Weather Stations Pressure Air Temp Water Temp Dewpoint Dewpoint Depression Visibility Wind Speed Wind Dir Waves Ship Positions

Orion

Last reported at 2018-Jun-25 04:28 UTC. Time now 2018-Jun-25 04:32 UTC.
Position N 18°05' W 063°24'.

Length 70 m; draft 2.8 m.

Type: Cargo ship. MMSI: 671051000.

Date/timePositionNaut miles runAvg speedWind from/ knotsBaromVisibWave heightAir tempDewpointWater temp
2018-Jun-25 04:28N 18°05' W 063°24'5 9.1
2018-Jun-25 03:58N 18°04' W 063°20'4 9.0
2018-Jun-25 03:30N 18°03' W 063°15'5 9.2
2018-Jun-25 02:58N 18°02' W 063°10'4 9.4
2018-Jun-25 02:29N 18°01' W 063°06'3 5.4
2018-Jun-25 01:57N 18°01' W 063°03'0 0.0
2018-Jun-25 01:27N 18°01' W 063°03'0 0.0
2018-Jun-25 00:57N 18°01' W 063°03'0 0.0
2018-Jun-25 00:30N 18°01' W 063°03'0 0.0
2018-Jun-24 23:57N 18°01' W 063°03'0 0.0
2018-Jun-24 23:27N 18°01' W 063°03'0 0.0
2018-Jun-24 23:00N 18°01' W 063°03'0 0.0
2018-Jun-24 22:30N 18°01' W 063°03'0 0.0
2018-Jun-24 21:33N 18°01' W 063°03'0 0.0
2018-Jun-24 21:30N 18°01' W 063°03'0 0.0
2018-Jun-24 18:46N 18°01' W 063°03'0 0.4
2018-Jun-24 18:22N 18°01' W 063°03'3 7.3
2018-Jun-24 17:57N 18°01' W 063°06'4 9.2
2018-Jun-24 17:29N 18°03' W 063°10'4 7.7
2018-Jun-24 17:00N 18°06' W 063°07'2 4.0
2018-Jun-24 16:26N 18°05' W 063°05'0 0.0
2018-Jun-24 15:56N 18°05' W 063°05'0 0.0
2018-Jun-24 15:26N 18°05' W 063°05'0 0.1
2018-Jun-24 14:56N 18°05' W 063°05'0 0.0
2018-Jun-24 14:29N 18°05' W 063°05'0 0.0
2018-Jun-24 13:59N 18°05' W 063°05'0 0.0
2018-Jun-24 13:26N 18°05' W 063°05'0 0.0
2018-Jun-24 12:56N 18°05' W 063°05'0 0.1
2018-Jun-24 12:29N 18°05' W 063°05'0 0.0
2018-Jun-24 05:50N 18°05' W 063°05'0 0.0
2018-Jun-24 05:23N 18°05' W 063°05'0 0.0
2018-Jun-24 04:53N 18°05' W 063°05'0 0.0
2018-Jun-24 04:26N 18°05' W 063°05'0 0.0
2018-Jun-24 03:53N 18°05' W 063°05'0 0.0
2018-Jun-24 03:23N 18°05' W 063°05'0 0.0
2018-Jun-24 02:56N 18°05' W 063°05'0 0.0
2018-Jun-24 02:23N 18°05' W 063°05'0 0.0
2018-Jun-24 01:56N 18°05' W 063°05'0 0.0
2018-Jun-24 01:23N 18°05' W 063°05'0 0.0
2018-Jun-24 00:59N 18°05' W 063°05'0 0.0
2018-Jun-23 23:56N 18°05' W 063°05'0 0.0
2018-Jun-23 23:29N 18°05' W 063°05'0 0.0
2018-Jun-23 22:59N 18°05' W 063°05'0 0.0
2018-Jun-23 22:26N 18°05' W 063°05'0 0.0
2018-Jun-23 21:59N 18°05' W 063°05'0 0.1
2018-Jun-23 21:28N 18°05' W 063°05'0 0.0
2018-Jun-23 20:59N 18°05' W 063°05'0 0.0
2018-Jun-23 20:26N 18°05' W 063°05'0 0.0
2018-Jun-23 20:00N 18°05' W 063°05'0 0.0
2018-Jun-23 19:23N 18°05' W 063°05'2 5.1
2018-Jun-23 18:56N 18°05' W 063°08'4 7.4
2018-Jun-23 18:27N 18°02' W 063°09'610.6
2018-Jun-23 17:56N 17°57' W 063°08'610.6
2018-Jun-23 17:24N 17°51' W 063°07'510.5
2018-Jun-23 16:55N 17°46' W 063°06'510.3
2018-Jun-23 16:26N 17°41' W 063°05'610.7
2018-Jun-23 15:51N 17°35' W 063°03'410.6
2018-Jun-23 15:28N 17°31' W 063°02'2 0.4
2018-Jun-23 10:48N 17°30' W 063°03'5 7.7
2018-Jun-23 10:10N 17°33' W 063°07'1 6.9
2018-Jun-23 09:58N 17°34' W 063°08'4 6.8
2018-Jun-23 09:21N 17°38' W 063°11'3 6.8
2018-Jun-23 08:58N 17°40' W 063°12'3 7.3
2018-Jun-23 08:30N 17°42' W 063°15'4 7.9
2018-Jun-23 08:00N 17°44' W 063°19'4 7.9
2018-Jun-23 07:28N 17°46' W 063°22'4 7.4
2018-Jun-23 06:59N 17°48' W 063°26'4 6.9
2018-Jun-23 06:28N 17°50' W 063°29'16 0.6
2018-Jun-22 00:58N 18°06' W 063°27'3 6.3
2018-Jun-22 00:26N 18°05' W 063°24'3 6.2
2018-Jun-21 23:58N 18°05' W 063°21'3 6.1
2018-Jun-21 23:30N 18°04' W 063°18'4 6.2
2018-Jun-21 22:55N 18°03' W 063°14'3 6.2
2018-Jun-21 22:30N 18°03' W 063°12'4 6.4
2018-Jun-21 21:56N 18°01' W 063°08'3 6.6
2018-Jun-21 21:29N 18°01' W 063°05'2 3.7
2018-Jun-21 20:52N 18°01' W 063°03'0 0.0
2018-Jun-21 20:19N 18°01' W 063°03'0 0.0
2018-Jun-21 19:52N 18°01' W 063°03'0 0.0
2018-Jun-21 19:19N 18°01' W 063°03'0 0.0
2018-Jun-21 18:53N 18°01' W 063°03'0 0.0
2018-Jun-21 18:22N 18°01' W 063°03'0 0.0
2018-Jun-21 17:55N 18°01' W 063°03'0 0.0
2018-Jun-21 17:25N 18°01' W 063°03'0 0.0
2018-Jun-21 16:55N 18°01' W 063°03'0 0.0
2018-Jun-21 16:25N 18°01' W 063°03'0 0.0
2018-Jun-21 15:52N 18°01' W 063°03'0 0.0
2018-Jun-21 15:25N 18°01' W 063°03'0 0.0
2018-Jun-21 14:58N 18°01' W 063°03'0 0.0
2018-Jun-21 14:28N 18°01' W 063°03'0 0.0
2018-Jun-21 13:56N 18°01' W 063°03'0 0.0
2018-Jun-21 13:28N 18°01' W 063°03'0 0.0
2018-Jun-21 12:58N 18°01' W 063°03'0 0.0
2018-Jun-21 12:26N 18°01' W 063°03'0 0.0
2018-Jun-21 11:59N 18°01' W 063°03'0 0.0
2018-Jun-21 11:26N 18°01' W 063°03'1 1.5
2018-Jun-21 11:00N 18°00' W 063°03'4 6.6
2018-Jun-21 10:28N 17°57' W 063°05'4 8.2
2018-Jun-21 09:55N 17°53' W 063°03'4 7.9
2018-Jun-21 09:23N 17°49' W 063°02'5 8.1
2018-Jun-21 08:48N 17°45' W 063°00'2 7.8
2018-Jun-21 08:29N 17°42' W 062°59'5 7.5
2018-Jun-21 07:45N 17°37' W 062°58'2 7.6
2018-Jun-21 07:29N 17°35' W 062°57'9 7.2
2018-Jun-21 06:16N 17°27' W 062°54'10 7.3
2018-Jun-21 04:50N 17°18' W 062°48'13 0.6
2018-Jun-20 07:45N 17°07' W 062°40'310.3
2018-Jun-20 07:27N 17°09' W 062°42'18 9.7
2018-Jun-20 05:37N 17°22' W 062°56'1 9.6
2018-Jun-20 05:29N 17°23' W 062°57'23 2.9
2018-Jun-19 21:27N 17°37' W 063°16'5 8.0
2018-Jun-19 20:51N 17°42' W 063°15'3 7.1
2018-Jun-19 20:29N 17°44' W 063°14'4 6.8
2018-Jun-19 19:56N 17°48' W 063°12'3 6.8
2018-Jun-19 19:26N 17°51' W 063°10'3 7.5
2018-Jun-19 19:00N 17°53' W 063°09'5 9.7
2018-Jun-19 18:30N 17°58' W 063°06'5 0.7
2018-Jun-19 12:18N 18°01' W 063°03'0 0.0
2018-Jun-19 11:48N 18°01' W 063°03'0 0.0
2018-Jun-19 11:28N 18°01' W 063°03'1 2.6
2018-Jun-19 11:00N 18°01' W 063°04'5 9.9
2018-Jun-19 10:30N 18°02' W 063°09'5 9.2
2018-Jun-19 09:57N 18°04' W 063°14'4 8.2
2018-Jun-19 09:28N 18°04' W 063°18'4 8.2
2018-Jun-19 09:00N 18°05' W 063°22'60 7.5
2018-Jun-19 01:03N 18°22' W 064°22'0 8.2
2018-Jun-19 01:00N 18°22' W 064°23'5 7.8
2018-Jun-19 00:23N 18°24' W 064°28'3 8.0
2018-Jun-18 23:59N 18°27' W 064°28'1 2.7
2018-Jun-18 23:29N 18°27' W 064°26'0 0.0
2018-Jun-18 22:59N 18°27' W 064°26'60 4.7
2018-Jun-18 10:18N 18°06' W 063°27'310.4
2018-Jun-18 09:59N 18°05' W 063°24'510.8
2018-Jun-18 09:29N 18°04' W 063°18'5 9.6
2018-Jun-18 09:00N 18°02' W 063°14'5 9.4
2018-Jun-18 08:30N 18°01' W 063°09'5 8.6
2018-Jun-18 07:58N 18°00' W 063°04'1 2.9
2018-Jun-18 07:28N 18°01' W 063°03'0 0.0
2018-Jun-18 07:00N 18°01' W 063°03'0 0.0
2018-Jun-18 06:10N 18°01' W 063°03'0 0.0
2018-Jun-18 05:57N 18°01' W 063°03'0 0.0
2018-Jun-18 05:30N 18°01' W 063°03'0 0.0
2018-Jun-18 04:58N 18°01' W 063°03'0 0.0
2018-Jun-18 04:23N 18°01' W 063°03'0 0.0
2018-Jun-18 03:53N 18°01' W 063°03'0 0.0
2018-Jun-18 03:29N 18°01' W 063°03'1 2.0
2018-Jun-18 02:57N 18°00' W 063°04'4 9.6
2018-Jun-18 02:30N 18°02' W 063°08'3 7.0
2018-Jun-18 02:00N 18°05' W 063°09'3 4.4
2018-Jun-18 01:17N 18°05' W 063°06'0 0.0
2018-Jun-18 00:47N 18°05' W 063°06'0 0.0
2018-Jun-18 00:20N 18°05' W 063°06'0 0.0
2018-Jun-17 23:53N 18°05' W 063°06'0 0.0
2018-Jun-17 23:24N 18°05' W 063°06'0 0.1
2018-Jun-17 22:53N 18°05' W 063°06'0 0.1
2018-Jun-17 22:26N 18°05' W 063°06'0 0.0
2018-Jun-17 21:53N 18°05' W 063°06'0 0.0
2018-Jun-17 21:27N 18°05' W 063°06'0 0.1
2018-Jun-17 20:56N 18°05' W 063°06'0 0.7
2018-Jun-17 20:29N 18°05' W 063°05'0 0.1
2018-Jun-17 19:59N 18°05' W 063°05'0 0.0
2018-Jun-17 19:26N 18°05' W 063°05'0 0.0
2018-Jun-17 18:59N 18°05' W 063°05'0 0.0
2018-Jun-17 18:26N 18°05' W 063°05'0 0.0
2018-Jun-17 17:59N 18°05' W 063°05'0 0.0
2018-Jun-17 17:27N 18°05' W 063°05'0 0.0
2018-Jun-17 16:59N 18°05' W 063°05'0 0.0
2018-Jun-17 16:14N 18°05' W 063°05'0 0.0
2018-Jun-17 15:59N 18°05' W 063°05'0 0.0
2018-Jun-17 15:29N 18°05' W 063°05'0 0.0
2018-Jun-17 14:47N 18°05' W 063°05'0 0.0
2018-Jun-17 13:36N 18°05' W 063°05'0 0.0
2018-Jun-17 13:21N 18°05' W 063°05'0 0.0
2018-Jun-17 12:50N 18°05' W 063°05'0 0.0
2018-Jun-17 12:23N 18°05' W 063°05'0 0.0
2018-Jun-17 11:41N 18°05' W 063°05'0 0.0
2018-Jun-17 11:11N 18°05' W 063°05'0 0.1
2018-Jun-17 10:59N 18°05' W 063°05'0 0.0
2018-Jun-17 10:29N 18°05' W 063°05'0 0.0
2018-Jun-17 10:00N 18°05' W 063°05'0 0.0
2018-Jun-17 09:29N 18°05' W 063°05'0 0.0
2018-Jun-17 08:59N 18°05' W 063°05'0 0.0
2018-Jun-17 08:29N 18°05' W 063°05'0 0.0
2018-Jun-17 07:59N 18°05' W 063°05'0 0.0
2018-Jun-17 07:29N 18°05' W 063°05'0 0.0
2018-Jun-17 06:59N 18°05' W 063°05'0 0.0
2018-Jun-17 06:29N 18°05' W 063°05'0 0.0
2018-Jun-17 05:59N 18°05' W 063°05'0 0.0
2018-Jun-17 05:29N 18°05' W 063°05'0 0.0
2018-Jun-17 04:59N 18°05' W 063°05'0 0.0
2018-Jun-17 04:29N 18°05' W 063°05'0 0.0
2018-Jun-17 03:50N 18°05' W 063°05'0 0.0
2018-Jun-17 03:20N 18°05' W 063°05'0 0.0
2018-Jun-17 02:50N 18°05' W 063°05'0 0.0
2018-Jun-17 02:23N 18°05' W 063°05'0 0.0
2018-Jun-17 01:53N 18°05' W 063°05'0 0.0
2018-Jun-17 01:23N 18°05' W 063°05'0 0.0
2018-Jun-17 00:53N 18°05' W 063°05'0 0.0
2018-Jun-17 00:26N 18°05' W 063°05'0 0.0
2018-Jun-16 23:56N 18°05' W 063°05'0 0.0
2018-Jun-16 23:26N 18°05' W 063°05'0 0.0
2018-Jun-16 22:56N 18°05' W 063°05'0 0.0
2018-Jun-16 22:23N 18°05' W 063°05'0 0.0
2018-Jun-16 21:53N 18°05' W 063°05'0 0.0
2018-Jun-16 21:23N 18°05' W 063°05'0 0.0
2018-Jun-16 20:59N 18°05' W 063°05'0 0.0
2018-Jun-16 20:29N 18°05' W 063°05'0 0.0
2018-Jun-16 20:00N 18°05' W 063°05'0 0.0
2018-Jun-16 19:29N 18°05' W 063°05'0 0.0
2018-Jun-16 19:00N 18°05' W 063°05'0 0.0
2018-Jun-16 18:14N 18°05' W 063°05'0 0.1
2018-Jun-16 17:59N 18°05' W 063°05'0 0.0
2018-Jun-16 17:29N 18°05' W 063°05'0 0.0
2018-Jun-16 16:47N 18°05' W 063°05'0 0.0
2018-Jun-16 16:17N 18°05' W 063°05'0 0.0
2018-Jun-16 15:59N 18°05' W 063°05'0 0.0
2018-Jun-16 15:29N 18°05' W 063°05'0 0.0
2018-Jun-16 14:50N 18°05' W 063°05'0 0.0
2018-Jun-16 14:20N 18°05' W 063°05'0 0.0
2018-Jun-16 13:50N 18°05' W 063°05'0 0.0
2018-Jun-16 13:17N 18°05' W 063°05'0 0.0
2018-Jun-16 12:53N 18°05' W 063°05'0 0.0
2018-Jun-16 12:23N 18°05' W 063°05'0 0.0
2018-Jun-16 11:38N 18°05' W 063°05'0 0.1
2018-Jun-16 11:23N 18°05' W 063°05'0 0.0
2018-Jun-16 10:53N 18°05' W 063°05'0 0.0
2018-Jun-16 10:26N 18°05' W 063°05'0 0.0
2018-Jun-16 09:53N 18°05' W 063°05'0 0.0
2018-Jun-16 09:29N 18°05' W 063°05'0 0.0
2018-Jun-16 09:00N 18°05' W 063°05'0 0.0
2018-Jun-16 08:24N 18°05' W 063°05'0 0.0
2018-Jun-16 07:58N 18°05' W 063°05'0 0.0
2018-Jun-16 07:29N 18°05' W 063°05'0 0.0
2018-Jun-16 06:56N 18°05' W 063°05'0 0.0
2018-Jun-16 06:30N 18°05' W 063°05'0 0.0
2018-Jun-16 05:57N 18°05' W 063°05'0 0.0
2018-Jun-16 05:27N 18°05' W 063°05'0 0.0
2018-Jun-16 04:54N 18°05' W 063°05'0 0.0
2018-Jun-16 04:27N 18°05' W 063°05'0 0.8
2018-Jun-16 04:00N 18°05' W 063°06'4 7.7
2018-Jun-16 03:25N 18°06' W 063°10'410.0
2018-Jun-16 02:59N 18°07' W 063°15'5 9.9
2018-Jun-16 02:30N 18°08' W 063°20'5 9.9
2018-Jun-16 01:58N 18°09' W 063°25'  
Track history (hours):
 
Tides and Currents Weather Stations Pressure Air Temp Water Temp Dewpoint Dewpoint Depression Visibility Wind Speed Wind Dir Waves Ship Positions

Orion

Last reported at 2018-Jun-25 04:28 UTC. Time now 2018-Jun-25 04:32 UTC.
Position N 18°05' W 063°24'.

Length 70 m; draft 2.8 m.

Type: Cargo ship. MMSI: 671051000.

Date/timePositionNaut miles runAvg speedWind from/ knotsBaromVisibWave heightAir tempDewpointWater temp
2018-Jun-25 04:28N 18°05' W 063°24'5 9.1
2018-Jun-25 03:58N 18°04' W 063°20'4 9.0
2018-Jun-25 03:30N 18°03' W 063°15'5 9.2
2018-Jun-25 02:58N 18°02' W 063°10'4 9.4
2018-Jun-25 02:29N 18°01' W 063°06'3 5.4
2018-Jun-25 01:57N 18°01' W 063°03'0 0.0
2018-Jun-25 01:27N 18°01' W 063°03'0 0.0
2018-Jun-25 00:57N 18°01' W 063°03'0 0.0
2018-Jun-25 00:30N 18°01' W 063°03'0 0.0
2018-Jun-24 23:57N 18°01' W 063°03'0 0.0
2018-Jun-24 23:27N 18°01' W 063°03'0 0.0
2018-Jun-24 23:00N 18°01' W 063°03'0 0.0
2018-Jun-24 22:30N 18°01' W 063°03'0 0.0
2018-Jun-24 21:33N 18°01' W 063°03'0 0.0
2018-Jun-24 21:30N 18°01' W 063°03'0 0.0
2018-Jun-24 18:46N 18°01' W 063°03'0 0.4
2018-Jun-24 18:22N 18°01' W 063°03'3 7.3
2018-Jun-24 17:57N 18°01' W 063°06'4 9.2
2018-Jun-24 17:29N 18°03' W 063°10'4 7.7
2018-Jun-24 17:00N 18°06' W 063°07'2 4.0
2018-Jun-24 16:26N 18°05' W 063°05'0 0.0
2018-Jun-24 15:56N 18°05' W 063°05'0 0.0
2018-Jun-24 15:26N 18°05' W 063°05'0 0.1
2018-Jun-24 14:56N 18°05' W 063°05'0 0.0
2018-Jun-24 14:29N 18°05' W 063°05'0 0.0
2018-Jun-24 13:59N 18°05' W 063°05'0 0.0
2018-Jun-24 13:26N 18°05' W 063°05'0 0.0
2018-Jun-24 12:56N 18°05' W 063°05'0 0.1
2018-Jun-24 12:29N 18°05' W 063°05'0 0.0
2018-Jun-24 05:50N 18°05' W 063°05'0 0.0
2018-Jun-24 05:23N 18°05' W 063°05'0 0.0
2018-Jun-24 04:53N 18°05' W 063°05'0 0.0
2018-Jun-24 04:26N 18°05' W 063°05'0 0.0
2018-Jun-24 03:53N 18°05' W 063°05'0 0.0
2018-Jun-24 03:23N 18°05' W 063°05'0 0.0
2018-Jun-24 02:56N 18°05' W 063°05'0 0.0
2018-Jun-24 02:23N 18°05' W 063°05'0 0.0
2018-Jun-24 01:56N 18°05' W 063°05'0 0.0
2018-Jun-24 01:23N 18°05' W 063°05'0 0.0
2018-Jun-24 00:59N 18°05' W 063°05'0 0.0
2018-Jun-23 23:56N 18°05' W 063°05'0 0.0
2018-Jun-23 23:29N 18°05' W 063°05'0 0.0
2018-Jun-23 22:59N 18°05' W 063°05'0 0.0
2018-Jun-23 22:26N 18°05' W 063°05'0 0.0
2018-Jun-23 21:59N 18°05' W 063°05'0 0.1
2018-Jun-23 21:28N 18°05' W 063°05'0 0.0
2018-Jun-23 20:59N 18°05' W 063°05'0 0.0
2018-Jun-23 20:26N 18°05' W 063°05'0 0.0
2018-Jun-23 20:00N 18°05' W 063°05'0 0.0
2018-Jun-23 19:23N 18°05' W 063°05'2 5.1
2018-Jun-23 18:56N 18°05' W 063°08'4 7.4
2018-Jun-23 18:27N 18°02' W 063°09'610.6
2018-Jun-23 17:56N 17°57' W 063°08'610.6
2018-Jun-23 17:24N 17°51' W 063°07'510.5
2018-Jun-23 16:55N 17°46' W 063°06'510.3
2018-Jun-23 16:26N 17°41' W 063°05'610.7
2018-Jun-23 15:51N 17°35' W 063°03'410.6
2018-Jun-23 15:28N 17°31' W 063°02'2 0.4
2018-Jun-23 10:48N 17°30' W 063°03'5 7.7
2018-Jun-23 10:10N 17°33' W 063°07'1 6.9
2018-Jun-23 09:58N 17°34' W 063°08'4 6.8
2018-Jun-23 09:21N 17°38' W 063°11'3 6.8
2018-Jun-23 08:58N 17°40' W 063°12'3 7.3
2018-Jun-23 08:30N 17°42' W 063°15'4 7.9
2018-Jun-23 08:00N 17°44' W 063°19'4 7.9
2018-Jun-23 07:28N 17°46' W 063°22'4 7.4
2018-Jun-23 06:59N 17°48' W 063°26'4 6.9
2018-Jun-23 06:28N 17°50' W 063°29'16 0.6
2018-Jun-22 00:58N 18°06' W 063°27'3 6.3
2018-Jun-22 00:26N 18°05' W 063°24'3 6.2
2018-Jun-21 23:58N 18°05' W 063°21'3 6.1
2018-Jun-21 23:30N 18°04' W 063°18'4 6.2
2018-Jun-21 22:55N 18°03' W 063°14'3 6.2
2018-Jun-21 22:30N 18°03' W 063°12'4 6.4
2018-Jun-21 21:56N 18°01' W 063°08'3 6.6
2018-Jun-21 21:29N 18°01' W 063°05'2 3.7
2018-Jun-21 20:52N 18°01' W 063°03'0 0.0
2018-Jun-21 20:19N 18°01' W 063°03'0 0.0
2018-Jun-21 19:52N 18°01' W 063°03'0 0.0
2018-Jun-21 19:19N 18°01' W 063°03'0 0.0
2018-Jun-21 18:53N 18°01' W 063°03'0 0.0
2018-Jun-21 18:22N 18°01' W 063°03'0 0.0
2018-Jun-21 17:55N 18°01' W 063°03'0 0.0
2018-Jun-21 17:25N 18°01' W 063°03'0 0.0
2018-Jun-21 16:55N 18°01' W 063°03'0 0.0
2018-Jun-21 16:25N 18°01' W 063°03'0 0.0
2018-Jun-21 15:52N 18°01' W 063°03'0 0.0
2018-Jun-21 15:25N 18°01' W 063°03'0 0.0
2018-Jun-21 14:58N 18°01' W 063°03'0 0.0
2018-Jun-21 14:28N 18°01' W 063°03'0 0.0
2018-Jun-21 13:56N 18°01' W 063°03'0 0.0
2018-Jun-21 13:28N 18°01' W 063°03'0 0.0
2018-Jun-21 12:58N 18°01' W 063°03'0 0.0
2018-Jun-21 12:26N 18°01' W 063°03'0 0.0
2018-Jun-21 11:59N 18°01' W 063°03'0 0.0
2018-Jun-21 11:26N 18°01' W 063°03'1 1.5
2018-Jun-21 11:00N 18°00' W 063°03'4 6.6
2018-Jun-21 10:28N 17°57' W 063°05'4 8.2
2018-Jun-21 09:55N 17°53' W 063°03'4 7.9
2018-Jun-21 09:23N 17°49' W 063°02'5 8.1
2018-Jun-21 08:48N 17°45' W 063°00'2 7.8
2018-Jun-21 08:29N 17°42' W 062°59'5 7.5
2018-Jun-21 07:45N 17°37' W 062°58'2 7.6
2018-Jun-21 07:29N 17°35' W 062°57'9 7.2
2018-Jun-21 06:16N 17°27' W 062°54'10 7.3
2018-Jun-21 04:50N 17°18' W 062°48'13 0.6
2018-Jun-20 07:45N 17°07' W 062°40'310.3
2018-Jun-20 07:27N 17°09' W 062°42'18 9.7
2018-Jun-20 05:37N 17°22' W 062°56'1 9.6
2018-Jun-20 05:29N 17°23' W 062°57'23 2.9
2018-Jun-19 21:27N 17°37' W 063°16'5 8.0
2018-Jun-19 20:51N 17°42' W 063°15'3 7.1
2018-Jun-19 20:29N 17°44' W 063°14'4 6.8
2018-Jun-19 19:56N 17°48' W 063°12'3 6.8
2018-Jun-19 19:26N 17°51' W 063°10'3 7.5
2018-Jun-19 19:00N 17°53' W 063°09'5 9.7
2018-Jun-19 18:30N 17°58' W 063°06'5 0.7
2018-Jun-19 12:18N 18°01' W 063°03'0 0.0
2018-Jun-19 11:48N 18°01' W 063°03'0 0.0
2018-Jun-19 11:28N 18°01' W 063°03'1 2.6
2018-Jun-19 11:00N 18°01' W 063°04'5 9.9
2018-Jun-19 10:30N 18°02' W 063°09'5 9.2
2018-Jun-19 09:57N 18°04' W 063°14'4 8.2
2018-Jun-19 09:28N 18°04' W 063°18'4 8.2
2018-Jun-19 09:00N 18°05' W 063°22'60 7.5
2018-Jun-19 01:03N 18°22' W 064°22'0 8.2
2018-Jun-19 01:00N 18°22' W 064°23'5 7.8
2018-Jun-19 00:23N 18°24' W 064°28'3 8.0
2018-Jun-18 23:59N 18°27' W 064°28'1 2.7
2018-Jun-18 23:29N 18°27' W 064°26'0 0.0
2018-Jun-18 22:59N 18°27' W 064°26'60 4.7
2018-Jun-18 10:18N 18°06' W 063°27'310.4
2018-Jun-18 09:59N 18°05' W 063°24'510.8
2018-Jun-18 09:29N 18°04' W 063°18'5 9.6
2018-Jun-18 09:00N 18°02' W 063°14'5 9.4
2018-Jun-18 08:30N 18°01' W 063°09'5 8.6
2018-Jun-18 07:58N 18°00' W 063°04'1 2.9
2018-Jun-18 07:28N 18°01' W 063°03'0 0.0
2018-Jun-18 07:00N 18°01' W 063°03'0 0.0
2018-Jun-18 06:10N 18°01' W 063°03'0 0.0
2018-Jun-18 05:57N 18°01' W 063°03'0 0.0
2018-Jun-18 05:30N 18°01' W 063°03'0 0.0
2018-Jun-18 04:58N 18°01' W 063°03'0 0.0
2018-Jun-18 04:23N 18°01' W 063°03'0 0.0
2018-Jun-18 03:53N 18°01' W 063°03'0 0.0
2018-Jun-18 03:29N 18°01' W 063°03'1 2.0
2018-Jun-18 02:57N 18°00' W 063°04'4 9.6
2018-Jun-18 02:30N 18°02' W 063°08'3 7.0
2018-Jun-18 02:00N 18°05' W 063°09'3 4.4
2018-Jun-18 01:17N 18°05' W 063°06'0 0.0
2018-Jun-18 00:47N 18°05' W 063°06'0 0.0
2018-Jun-18 00:20N 18°05' W 063°06'0 0.0
2018-Jun-17 23:53N 18°05' W 063°06'0 0.0
2018-Jun-17 23:24N 18°05' W 063°06'0 0.1
2018-Jun-17 22:53N 18°05' W 063°06'0 0.1
2018-Jun-17 22:26N 18°05' W 063°06'0 0.0
2018-Jun-17 21:53N 18°05' W 063°06'0 0.0
2018-Jun-17 21:27N 18°05' W 063°06'0 0.1
2018-Jun-17 20:56N 18°05' W 063°06'0 0.7
2018-Jun-17 20:29N 18°05' W 063°05'0 0.1
2018-Jun-17 19:59N 18°05' W 063°05'0 0.0
2018-Jun-17 19:26N 18°05' W 063°05'0 0.0
2018-Jun-17 18:59N 18°05' W 063°05'0 0.0
2018-Jun-17 18:26N 18°05' W 063°05'0 0.0
2018-Jun-17 17:59N 18°05' W 063°05'0 0.0
2018-Jun-17 17:27N 18°05' W 063°05'0 0.0
2018-Jun-17 16:59N 18°05' W 063°05'0 0.0
2018-Jun-17 16:14N 18°05' W 063°05'0 0.0
2018-Jun-17 15:59N 18°05' W 063°05'0 0.0
2018-Jun-17 15:29N 18°05' W 063°05'0 0.0
2018-Jun-17 14:47N 18°05' W 063°05'0 0.0
2018-Jun-17 13:36N 18°05' W 063°05'0 0.0
2018-Jun-17 13:21N 18°05' W 063°05'0 0.0
2018-Jun-17 12:50N 18°05' W 063°05'0 0.0
2018-Jun-17 12:23N 18°05' W 063°05'0 0.0
2018-Jun-17 11:41N 18°05' W 063°05'0 0.0
2018-Jun-17 11:11N 18°05' W 063°05'0 0.1
2018-Jun-17 10:59N 18°05' W 063°05'0 0.0
2018-Jun-17 10:29N 18°05' W 063°05'0 0.0
2018-Jun-17 10:00N 18°05' W 063°05'0 0.0
2018-Jun-17 09:29N 18°05' W 063°05'0 0.0
2018-Jun-17 08:59N 18°05' W 063°05'0 0.0
2018-Jun-17 08:29N 18°05' W 063°05'0 0.0
2018-Jun-17 07:59N 18°05' W 063°05'0 0.0
2018-Jun-17 07:29N 18°05' W 063°05'0 0.0
2018-Jun-17 06:59N 18°05' W 063°05'0 0.0
2018-Jun-17 06:29N 18°05' W 063°05'0 0.0
2018-Jun-17 05:59N 18°05' W 063°05'0 0.0
2018-Jun-17 05:29N 18°05' W 063°05'0 0.0
2018-Jun-17 04:59N 18°05' W 063°05'0 0.0
2018-Jun-17 04:29N 18°05' W 063°05'0 0.0
2018-Jun-17 03:50N 18°05' W 063°05'0 0.0
2018-Jun-17 03:20N 18°05' W 063°05'0 0.0
2018-Jun-17 02:50N 18°05' W 063°05'0 0.0
2018-Jun-17 02:23N 18°05' W 063°05'0 0.0
2018-Jun-17 01:53N 18°05' W 063°05'0 0.0
2018-Jun-17 01:23N 18°05' W 063°05'0 0.0
2018-Jun-17 00:53N 18°05' W 063°05'0 0.0
2018-Jun-17 00:26N 18°05' W 063°05'0 0.0
2018-Jun-16 23:56N 18°05' W 063°05'0 0.0
2018-Jun-16 23:26N 18°05' W 063°05'0 0.0
2018-Jun-16 22:56N 18°05' W 063°05'0 0.0
2018-Jun-16 22:23N 18°05' W 063°05'0 0.0
2018-Jun-16 21:53N 18°05' W 063°05'0 0.0
2018-Jun-16 21:23N 18°05' W 063°05'0 0.0
2018-Jun-16 20:59N 18°05' W 063°05'0 0.0
2018-Jun-16 20:29N 18°05' W 063°05'0 0.0
2018-Jun-16 20:00N 18°05' W 063°05'0 0.0
2018-Jun-16 19:29N 18°05' W 063°05'0 0.0
2018-Jun-16 19:00N 18°05' W 063°05'0 0.0
2018-Jun-16 18:14N 18°05' W 063°05'0 0.1
2018-Jun-16 17:59N 18°05' W 063°05'0 0.0
2018-Jun-16 17:29N 18°05' W 063°05'0 0.0
2018-Jun-16 16:47N 18°05' W 063°05'0 0.0
2018-Jun-16 16:17N 18°05' W 063°05'0 0.0
2018-Jun-16 15:59N 18°05' W 063°05'0 0.0
2018-Jun-16 15:29N 18°05' W 063°05'0 0.0
2018-Jun-16 14:50N 18°05' W 063°05'0 0.0
2018-Jun-16 14:20N 18°05' W 063°05'0 0.0
2018-Jun-16 13:50N 18°05' W 063°05'0 0.0
2018-Jun-16 13:17N 18°05' W 063°05'0 0.0
2018-Jun-16 12:53N 18°05' W 063°05'0 0.0
2018-Jun-16 12:23N 18°05' W 063°05'0 0.0
2018-Jun-16 11:38N 18°05' W 063°05'0 0.1
2018-Jun-16 11:23N 18°05' W 063°05'0 0.0
2018-Jun-16 10:53N 18°05' W 063°05'0 0.0
2018-Jun-16 10:26N 18°05' W 063°05'0 0.0
2018-Jun-16 09:53N 18°05' W 063°05'0 0.0
2018-Jun-16 09:29N 18°05' W 063°05'0 0.0
2018-Jun-16 09:00N 18°05' W 063°05'0 0.0
2018-Jun-16 08:24N 18°05' W 063°05'0 0.0
2018-Jun-16 07:58N 18°05' W 063°05'0 0.0
2018-Jun-16 07:29N 18°05' W 063°05'0 0.0
2018-Jun-16 06:56N 18°05' W 063°05'0 0.0
2018-Jun-16 06:30N 18°05' W 063°05'0 0.0
2018-Jun-16 05:57N 18°05' W 063°05'0 0.0
2018-Jun-16 05:27N 18°05' W 063°05'0 0.0
2018-Jun-16 04:54N 18°05' W 063°05'0 0.0
2018-Jun-16 04:27N 18°05' W 063°05'0 0.8
2018-Jun-16 04:00N 18°05' W 063°06'4 7.7
2018-Jun-16 03:25N 18°06' W 063°10'410.0
2018-Jun-16 02:59N 18°07' W 063°15'5 9.9
2018-Jun-16 02:30N 18°08' W 063°20'5 9.9
2018-Jun-16 01:58N 18°09' W 063°25'  

Dump ship's entire track history